createdAt,value
2022-09-20T00:00:42.556Z,9.678062
2022-09-20T00:01:42.576Z,9.678049
2022-09-20T00:02:42.511Z,9.678033
2022-09-20T00:03:42.499Z,9.678073
2022-09-20T00:04:42.544Z,9.678054
2022-09-20T00:05:42.501Z,9.678032
2022-09-20T00:06:42.492Z,9.678009
2022-09-20T00:07:42.463Z,9.678185
2022-09-20T00:08:42.450Z,9.678123
2022-09-20T00:09:42.454Z,9.678136
2022-09-20T00:10:42.461Z,9.678149
2022-09-20T00:11:42.459Z,9.678061
2022-09-20T00:12:42.464Z,9.678012
2022-09-20T00:13:42.426Z,9.678065
2022-09-20T00:14:42.402Z,9.678051
2022-09-20T00:15:42.398Z,9.678013
2022-09-20T00:16:42.483Z,9.678061
2022-09-20T00:17:42.403Z,9.678044
2022-09-20T00:18:42.396Z,9.678041
2022-09-20T00:19:42.394Z,9.678025
2022-09-20T00:20:42.345Z,9.678080
2022-09-20T00:21:42.352Z,9.678129
2022-09-20T00:22:42.328Z,9.678123
2022-09-20T00:23:42.332Z,9.678051
2022-09-20T00:24:46.783Z,9.678098
2022-09-20T00:25:43.302Z,9.678119
2022-09-20T00:26:42.298Z,9.678094
2022-09-20T00:27:42.328Z,9.678091
2022-09-20T00:28:42.286Z,9.678010
2022-09-20T00:29:42.303Z,9.678124
2022-09-20T00:30:42.318Z,9.678164
2022-09-20T00:31:42.370Z,9.678115
2022-09-20T00:32:42.265Z,9.678035
2022-09-20T00:33:42.241Z,9.678100
2022-09-20T00:34:42.262Z,9.678098
2022-09-20T00:35:42.252Z,9.678114
2022-09-20T00:36:42.225Z,9.678152
2022-09-20T00:37:42.195Z,9.678056
2022-09-20T00:38:42.186Z,9.678142
2022-09-20T00:39:42.182Z,9.678163
2022-09-20T00:40:42.228Z,9.678122
2022-09-20T00:41:42.197Z,9.678128
2022-09-20T00:42:42.161Z,9.678145
2022-09-20T00:43:42.177Z,9.678125
2022-09-20T00:44:42.145Z,9.678110
2022-09-20T00:45:42.205Z,9.678131
2022-09-20T00:46:42.138Z,9.678151
2022-09-20T00:47:42.172Z,9.678144
2022-09-20T00:48:42.188Z,9.678091
2022-09-20T00:49:42.145Z,9.678113
2022-09-20T00:50:42.099Z,9.678093
2022-09-20T00:51:42.098Z,9.678104
2022-09-20T00:52:42.090Z,9.678111
2022-09-20T00:53:42.091Z,9.678109
2022-09-20T00:54:42.057Z,9.678168
2022-09-20T00:55:42.041Z,9.678163
2022-09-20T00:56:42.706Z,9.678145
2022-09-20T00:57:42.035Z,9.678117
2022-09-20T00:58:42.227Z,9.678059
2022-09-20T00:59:42.033Z,9.678100
2022-09-20T01:00:42.102Z,9.678092
2022-09-20T01:01:42.178Z,9.678108
2022-09-20T01:02:42.103Z,9.678108
2022-09-20T01:03:42.005Z,9.678027
2022-09-20T01:04:41.996Z,9.678084
2022-09-20T01:05:42.007Z,9.678118
2022-09-20T01:06:41.988Z,9.678172
2022-09-20T01:07:41.969Z,9.678087
2022-09-20T01:08:41.970Z,9.678153
2022-09-20T01:09:41.966Z,9.678130
2022-09-20T01:10:41.924Z,9.678145
2022-09-20T01:11:41.905Z,9.678192
2022-09-20T01:12:41.897Z,9.678175
2022-09-20T01:13:41.891Z,9.678177
2022-09-20T01:14:41.957Z,9.678169
2022-09-20T01:15:41.897Z,9.678118
2022-09-20T01:16:41.927Z,9.678091
2022-09-20T01:17:41.872Z,9.678143
2022-09-20T01:18:41.866Z,9.678142
2022-09-20T01:19:41.972Z,9.678144
2022-09-20T01:20:41.899Z,9.678167
2022-09-20T01:21:41.859Z,9.678136
2022-09-20T01:22:41.869Z,9.678126
2022-09-20T01:23:41.892Z,9.678114
2022-09-20T01:24:41.793Z,9.678095
2022-09-20T01:25:41.850Z,9.678114
2022-09-20T01:26:41.836Z,9.678176
2022-09-20T01:27:41.814Z,9.678163
2022-09-20T01:28:41.820Z,9.678164
2022-09-20T01:29:41.766Z,9.678139
2022-09-20T01:30:41.744Z,9.678131
2022-09-20T01:31:41.775Z,9.678155
2022-09-20T01:32:41.748Z,9.678147
2022-09-20T01:33:41.717Z,9.678172
2022-09-20T01:34:41.793Z,9.678154
2022-09-20T01:35:41.701Z,9.678166
2022-09-20T01:36:41.700Z,9.678120
2022-09-20T01:37:41.731Z,9.678083
2022-09-20T01:38:41.697Z,9.678130
2022-09-20T01:39:41.726Z,9.678127
2022-09-20T01:40:41.703Z,9.678137
2022-09-20T01:44:07.303Z,9.678146
2022-09-20T01:45:07.307Z,9.678086
2022-09-20T01:46:07.334Z,9.678123
2022-09-20T01:47:07.270Z,9.678159
2022-09-20T01:48:07.262Z,9.678166
2022-09-20T01:49:07.418Z,9.678242
2022-09-20T01:50:07.249Z,9.678256
2022-09-20T01:51:07.246Z,9.678184
2022-09-20T01:52:07.219Z,9.678188
2022-09-20T01:53:07.247Z,9.678209
2022-09-20T01:54:07.200Z,9.678204
2022-09-20T01:55:07.201Z,9.678167
2022-09-20T01:56:07.196Z,9.678179
2022-09-20T01:57:07.228Z,9.678107
2022-09-20T01:58:07.168Z,9.678128
2022-09-20T01:59:23.191Z,9.678118
2022-09-20T02:00:08.153Z,9.678153
2022-09-20T02:01:07.213Z,9.678144
2022-09-20T02:02:07.202Z,9.678162
2022-09-20T02:03:07.158Z,9.678102
2022-09-20T02:04:07.121Z,9.678099
2022-09-20T02:05:07.114Z,9.678141
2022-09-20T02:06:07.104Z,9.678141
2022-09-20T02:07:07.130Z,9.678185
2022-09-20T02:08:07.111Z,9.678146
2022-09-20T02:09:07.073Z,9.678102
2022-09-20T02:10:07.070Z,9.678174
2022-09-20T02:11:07.052Z,9.678122
2022-09-20T02:12:07.042Z,9.678141
2022-09-20T02:13:07.038Z,9.678101
2022-09-20T02:14:07.091Z,9.678072
2022-09-20T02:15:07.020Z,9.678123
2022-09-20T02:16:07.036Z,9.678171
2022-09-20T02:17:07.006Z,9.678090
2022-09-20T02:18:06.998Z,9.678126
2022-09-20T02:19:06.994Z,9.678173
2022-09-20T02:20:07.001Z,9.678103
2022-09-20T02:21:06.970Z,9.678123
2022-09-20T02:22:06.968Z,9.678122
2022-09-20T02:23:07.093Z,9.678142
2022-09-20T02:24:06.955Z,9.678335
2022-09-20T02:25:06.961Z,9.678226
2022-09-20T02:26:06.936Z,9.678149
2022-09-20T02:27:06.924Z,9.678175
2022-09-20T02:28:06.913Z,9.678128
2022-09-20T02:29:07.137Z,9.678140
2022-09-20T02:30:06.896Z,9.678119
2022-09-20T02:31:06.943Z,9.678149
2022-09-20T02:32:06.955Z,9.678254
2022-09-20T02:33:06.869Z,9.678184
2022-09-20T02:34:06.863Z,9.678210
2022-09-20T02:35:06.847Z,9.678227
2022-09-20T02:36:06.844Z,9.678259
2022-09-20T02:37:06.853Z,9.678275
2022-09-20T02:38:06.829Z,9.678286
2022-09-20T02:39:06.812Z,9.678204
2022-09-20T02:40:06.861Z,9.678182
2022-09-20T02:41:06.795Z,9.678202
2022-09-20T02:42:06.812Z,9.678185
2022-09-20T02:43:06.776Z,9.678123
2022-09-20T02:44:06.953Z,9.678193
2022-09-20T02:45:06.766Z,9.678277
2022-09-20T02:46:06.801Z,9.678283
2022-09-20T02:47:06.750Z,9.678283
2022-09-20T02:48:06.763Z,9.678192
2022-09-20T02:49:06.733Z,9.678194
2022-09-20T02:50:06.737Z,9.678218
2022-09-20T02:51:06.751Z,9.678185
2022-09-20T02:52:06.700Z,9.678150
2022-09-20T02:53:06.694Z,9.678184
2022-09-20T02:54:06.676Z,9.678123
2022-09-20T02:55:06.669Z,9.678093
2022-09-20T02:56:06.669Z,9.678227
2022-09-20T02:57:06.690Z,9.678102
2022-09-20T02:58:06.657Z,9.678176
2022-09-20T02:59:06.871Z,9.678205
2022-09-20T03:00:06.635Z,9.678122
2022-09-20T03:01:06.739Z,9.678082
2022-09-20T03:02:06.658Z,9.678077
2022-09-20T03:03:06.626Z,9.678138
2022-09-20T03:04:06.613Z,9.678150
2022-09-20T03:05:06.614Z,9.678152
2022-09-20T03:06:06.593Z,9.678176
2022-09-20T03:07:06.565Z,9.678151
2022-09-20T03:08:06.552Z,9.678160
2022-09-20T03:09:06.574Z,9.678163
2022-09-20T03:10:06.534Z,9.678165
2022-09-20T03:11:06.556Z,9.678120
2022-09-20T03:12:06.523Z,9.678107
2022-09-20T03:13:06.506Z,9.678111
2022-09-20T03:14:06.602Z,9.678066
2022-09-20T03:15:06.518Z,9.678167
2022-09-20T03:16:06.542Z,9.678148
2022-09-20T03:17:06.541Z,9.678164
2022-09-20T03:18:06.470Z,9.678130
2022-09-20T03:19:06.480Z,9.678170
2022-09-20T03:20:06.479Z,9.678151
2022-09-20T03:21:06.456Z,9.678154
2022-09-20T03:22:06.445Z,9.678100
2022-09-20T03:23:06.464Z,9.678121
2022-09-20T03:24:06.422Z,9.678101
2022-09-20T03:25:06.404Z,9.678119
2022-09-20T03:26:06.422Z,9.678164
2022-09-20T03:27:06.402Z,9.678163
2022-09-20T03:28:06.379Z,9.678137
2022-09-20T03:29:06.518Z,9.678144
2022-09-20T03:30:06.365Z,9.678158
2022-09-20T03:31:06.417Z,9.678149
2022-09-20T03:32:06.422Z,9.678110
2022-09-20T03:33:06.347Z,9.678125
2022-09-20T03:34:06.427Z,9.678104
2022-09-20T03:35:06.336Z,9.678134
2022-09-20T03:36:06.323Z,9.678110
2022-09-20T03:37:06.355Z,9.678105
2022-09-20T03:38:06.311Z,9.678092
2022-09-20T03:39:06.287Z,9.678108
2022-09-20T03:40:06.324Z,9.678162
2022-09-20T03:41:06.275Z,9.678128
2022-09-20T03:42:06.260Z,9.678111
2022-09-20T03:43:06.306Z,9.678182
2022-09-20T03:44:06.363Z,9.678101
2022-09-20T03:45:06.243Z,9.678089
2022-09-20T03:46:06.325Z,9.678043
2022-09-20T03:47:06.231Z,9.678107
2022-09-20T03:48:06.222Z,9.678087
2022-09-20T03:49:06.237Z,9.678107
2022-09-20T03:50:06.198Z,9.678102
2022-09-20T03:51:06.203Z,9.678136
2022-09-20T03:52:06.193Z,9.678154
2022-09-20T03:53:06.169Z,9.678142
2022-09-20T03:54:06.171Z,9.678139
2022-09-20T03:55:06.199Z,9.678128
2022-09-20T03:56:06.143Z,9.678104
2022-09-20T03:57:06.145Z,9.678105
2022-09-20T03:58:08.912Z,9.678100
2022-09-20T03:59:06.219Z,9.678084
2022-09-20T04:00:06.135Z,9.678123
2022-09-20T04:01:06.146Z,9.678136
2022-09-20T04:02:06.141Z,9.678124
2022-09-20T04:03:06.092Z,9.678093
2022-09-20T04:04:06.083Z,9.678144
2022-09-20T04:05:06.076Z,9.678123
2022-09-20T04:06:06.098Z,9.678151
2022-09-20T04:07:06.070Z,9.678072
2022-09-20T04:08:06.068Z,9.678059
2022-09-20T04:09:06.035Z,9.678089
2022-09-20T04:10:06.041Z,9.678084
2022-09-20T04:11:06.020Z,9.678083
2022-09-20T04:12:06.070Z,9.678131
2022-09-20T04:13:06.003Z,9.678111
2022-09-20T04:14:11.152Z,9.678052
2022-09-20T04:15:06.993Z,9.678096
2022-09-20T04:16:06.088Z,9.678123
2022-09-20T04:17:06.091Z,9.678062
2022-09-20T04:18:05.962Z,9.678102
2022-09-20T04:19:05.952Z,9.678120
2022-09-20T04:20:05.981Z,9.678131
2022-09-20T04:21:05.941Z,9.678098
2022-09-20T04:22:05.943Z,9.678084
2022-09-20T04:23:05.932Z,9.678100
2022-09-20T04:24:05.910Z,9.678003
2022-09-20T04:25:05.931Z,9.678119
2022-09-20T04:26:05.912Z,9.678113
2022-09-20T04:27:05.887Z,9.678117
2022-09-20T04:28:05.882Z,9.678106
2022-09-20T04:29:05.991Z,9.678054
2022-09-20T04:30:05.893Z,9.678092
2022-09-20T04:31:05.848Z,9.678102
2022-09-20T04:32:05.895Z,9.678124
2022-09-20T04:33:05.832Z,9.678113
2022-09-20T04:34:05.829Z,9.678106
2022-09-20T04:35:05.826Z,9.678076
2022-09-20T04:36:05.843Z,9.678079
2022-09-20T04:37:05.802Z,9.678102
2022-09-20T04:38:05.804Z,9.678052
2022-09-20T04:39:05.798Z,9.678051
2022-09-20T04:40:05.830Z,9.678059
2022-09-20T04:41:05.779Z,9.678078
2022-09-20T04:42:05.792Z,9.678032
2022-09-20T04:43:05.748Z,9.678041
2022-09-20T04:44:05.800Z,9.678040
2022-09-20T04:45:05.757Z,9.678013
2022-09-20T04:46:05.808Z,9.678066
2022-09-20T04:47:05.727Z,9.678083
2022-09-20T04:48:05.715Z,9.678072
2022-09-20T04:49:05.708Z,9.678064
2022-09-20T04:50:05.695Z,9.678031
2022-09-20T04:51:05.716Z,9.678031
2022-09-20T04:52:05.686Z,9.678030
2022-09-20T04:53:05.709Z,9.678071
2022-09-20T04:54:05.657Z,9.678048
2022-09-20T04:55:05.654Z,9.678034
2022-09-20T04:56:05.646Z,9.678089
2022-09-20T04:57:05.659Z,9.678073
2022-09-20T04:58:05.631Z,9.678069
2022-09-20T04:59:05.767Z,9.678059
2022-09-20T05:00:05.626Z,9.678055
2022-09-20T05:01:05.638Z,9.678069
2022-09-20T05:02:05.648Z,9.678144
2022-09-20T05:03:05.611Z,9.678106
2022-09-20T05:04:05.576Z,9.678103
2022-09-20T05:05:05.785Z,9.678086
2022-09-20T05:06:05.562Z,9.678099
2022-09-20T05:07:05.547Z,9.678072
2022-09-20T05:08:05.547Z,9.678112
2022-09-20T05:09:05.528Z,9.678090
2022-09-20T05:10:05.517Z,9.678108
2022-09-20T05:11:05.545Z,9.678093
2022-09-20T05:12:05.509Z,9.678075
2022-09-20T05:13:05.492Z,9.678088
2022-09-20T05:14:05.495Z,9.678072
2022-09-20T05:15:05.501Z,9.678028
2022-09-20T05:16:05.537Z,9.678044
2022-09-20T05:17:05.559Z,9.678072
2022-09-20T05:18:05.496Z,9.678101
2022-09-20T05:19:05.461Z,9.678032
2022-09-20T05:20:05.444Z,9.678101
2022-09-20T05:21:05.430Z,9.678095
2022-09-20T05:22:05.475Z,9.678074
2022-09-20T05:23:05.411Z,9.678057
2022-09-20T05:24:07.463Z,9.678037
2022-09-20T05:25:05.390Z,9.678033
2022-09-20T05:26:06.222Z,9.678069
2022-09-20T05:27:05.396Z,9.678095
2022-09-20T05:28:05.366Z,9.678041
2022-09-20T05:29:05.390Z,9.678031
2022-09-20T05:30:05.481Z,9.678017
2022-09-20T05:31:05.350Z,9.678066
2022-09-20T05:32:05.440Z,9.678025
2022-09-20T05:33:05.341Z,9.678020
2022-09-20T05:34:05.324Z,9.677994
2022-09-20T05:35:05.325Z,9.678039
2022-09-20T05:36:05.310Z,9.677979
2022-09-20T05:37:05.316Z,9.677990
2022-09-20T05:38:05.311Z,9.678059
2022-09-20T05:39:05.344Z,9.678085
2022-09-20T05:40:05.315Z,9.678078
2022-09-20T05:41:05.274Z,9.678058
2022-09-20T05:42:05.251Z,9.678055
2022-09-20T05:43:05.242Z,9.678089
2022-09-20T05:44:05.413Z,9.678088
2022-09-20T05:45:05.310Z,9.678098
2022-09-20T05:46:05.297Z,9.678070
2022-09-20T05:47:05.221Z,9.678074
2022-09-20T05:48:05.225Z,9.678082
2022-09-20T05:49:05.198Z,9.678082
2022-09-20T05:50:05.407Z,9.678020
2022-09-20T05:51:05.179Z,9.678057
2022-09-20T05:52:05.169Z,9.678053
2022-09-20T05:53:05.186Z,9.678042
2022-09-20T05:54:05.190Z,9.678059
2022-09-20T05:55:05.142Z,9.678070
2022-09-20T05:56:05.141Z,9.678056
2022-09-20T05:57:05.134Z,9.678066
2022-09-20T05:58:05.120Z,9.678072
2022-09-20T05:59:07.280Z,9.678049
2022-09-20T06:00:05.128Z,9.678051
2022-09-20T06:01:05.190Z,9.678074
2022-09-20T06:02:05.132Z,9.678088
2022-09-20T06:03:05.096Z,9.678076
2022-09-20T06:04:05.062Z,9.678080
2022-09-20T06:05:05.076Z,9.678093
2022-09-20T06:06:05.109Z,9.678066
2022-09-20T06:07:05.040Z,9.678072
2022-09-20T06:08:05.030Z,9.678119
2022-09-20T06:09:05.024Z,9.678081
2022-09-20T06:10:05.015Z,9.678082
2022-09-20T06:11:05.033Z,9.678101
2022-09-20T06:12:04.993Z,9.678101
2022-09-20T06:13:04.994Z,9.678121
2022-09-20T06:14:05.214Z,9.678113
2022-09-20T06:15:04.974Z,9.678092
2022-09-20T06:16:05.012Z,9.678075
2022-09-20T06:17:05.004Z,9.678098
2022-09-20T06:18:04.942Z,9.678021
2022-09-20T06:19:04.932Z,9.678109
2022-09-20T06:20:04.928Z,9.678033
2022-09-20T06:21:04.942Z,9.678089
2022-09-20T06:22:04.907Z,9.678046
2022-09-20T06:23:04.936Z,9.678070
2022-09-20T06:24:04.891Z,9.678088
2022-09-20T06:25:04.876Z,9.678080
2022-09-20T06:26:04.877Z,9.678041
2022-09-20T06:27:04.875Z,9.678059
2022-09-20T06:28:04.888Z,9.678048
2022-09-20T06:29:04.858Z,9.678075
2022-09-20T06:30:04.868Z,9.678081
2022-09-20T06:31:04.865Z,9.678086
2022-09-20T06:32:04.834Z,9.678092
2022-09-20T06:33:04.839Z,9.678085
2022-09-20T06:34:05.667Z,9.678069
2022-09-20T06:35:04.805Z,9.678065
2022-09-20T06:36:04.797Z,9.678108
2022-09-20T06:37:04.794Z,9.678066
2022-09-20T06:38:04.824Z,9.678087
2022-09-20T06:39:04.767Z,9.678068
2022-09-20T06:40:04.880Z,9.678098
2022-09-20T06:41:04.775Z,9.678090
2022-09-20T06:42:04.747Z,9.678125
2022-09-20T06:43:04.754Z,9.678079
2022-09-20T06:44:04.836Z,9.678119
2022-09-20T06:45:04.770Z,9.678015
2022-09-20T06:46:04.772Z,9.678044
2022-09-20T06:47:04.708Z,9.678039
2022-09-20T06:48:04.689Z,9.678020
2022-09-20T06:49:04.702Z,9.678068
2022-09-20T06:50:04.685Z,9.678135
2022-09-20T06:51:04.673Z,9.678053
2022-09-20T06:52:04.660Z,9.678068
2022-09-20T06:53:04.652Z,9.678122
2022-09-20T06:54:04.645Z,9.678018
2022-09-20T06:55:04.660Z,9.678061
2022-09-20T06:56:04.627Z,9.678100
2022-09-20T06:57:04.640Z,9.678033
2022-09-20T06:58:05.233Z,9.678041
2022-09-20T06:59:04.608Z,9.678051
2022-09-20T07:00:04.643Z,9.677979
2022-09-20T07:01:04.643Z,9.678039
2022-09-20T07:02:04.621Z,9.678023
2022-09-20T07:03:04.566Z,9.678052
2022-09-20T07:04:04.558Z,9.678096
2022-09-20T07:05:04.574Z,9.678097
2022-09-20T07:06:04.599Z,9.678152
2022-09-20T07:07:09.126Z,9.678099
2022-09-20T07:08:05.546Z,9.678042
2022-09-20T07:09:04.523Z,9.678056
2022-09-20T07:10:04.582Z,9.678008
2022-09-20T07:11:04.521Z,9.678006
2022-09-20T07:12:04.528Z,9.678022
2022-09-20T07:13:04.486Z,9.678103
2022-09-20T07:14:04.691Z,9.678094
2022-09-20T07:15:04.469Z,9.678042
2022-09-20T07:16:04.460Z,9.678014
2022-09-20T07:17:04.447Z,9.678028
2022-09-20T07:18:04.470Z,9.678043
2022-09-20T07:19:04.452Z,9.678020
2022-09-20T07:20:04.428Z,9.678025
2022-09-20T07:21:04.457Z,9.678087
2022-09-20T07:22:04.446Z,9.678095
2022-09-20T07:23:04.406Z,9.678131
2022-09-20T07:24:04.423Z,9.678103
2022-09-20T07:25:04.388Z,9.678094
2022-09-20T07:26:04.425Z,9.678127
2022-09-20T07:27:04.375Z,9.678074
2022-09-20T07:28:04.360Z,9.678111
2022-09-20T07:29:04.417Z,9.678061
2022-09-20T07:30:04.362Z,9.678067
2022-09-20T07:31:04.328Z,9.678059
2022-09-20T07:32:04.331Z,9.678062
2022-09-20T07:33:04.341Z,9.678116
2022-09-20T07:34:04.323Z,9.678072
2022-09-20T07:35:04.291Z,9.678056
2022-09-20T07:36:04.287Z,9.678099
2022-09-20T07:37:04.294Z,9.678005
2022-09-20T07:38:04.281Z,9.678072
2022-09-20T07:39:04.298Z,9.678045
2022-09-20T07:40:04.366Z,9.678074
2022-09-20T07:41:04.246Z,9.678062
2022-09-20T07:42:04.337Z,9.678126
2022-09-20T07:43:04.229Z,9.678160
2022-09-20T07:44:04.228Z,9.678084
2022-09-20T07:45:04.232Z,9.678055
2022-09-20T07:46:04.267Z,9.678055
2022-09-20T07:47:04.198Z,9.678054
2022-09-20T07:48:04.196Z,9.678080
2022-09-20T07:49:04.182Z,9.678067
2022-09-20T07:50:04.175Z,9.678063
2022-09-20T07:51:08.009Z,9.678106
2022-09-20T07:52:04.187Z,9.678050
2022-09-20T07:53:04.152Z,9.678045
2022-09-20T07:54:04.146Z,9.678064
2022-09-20T07:55:04.154Z,9.678014
2022-09-20T07:56:04.130Z,9.678059
2022-09-20T07:57:04.154Z,9.678090
2022-09-20T07:58:04.110Z,9.678103
2022-09-20T07:59:04.184Z,9.678134
2022-09-20T08:00:04.098Z,9.678119
2022-09-20T08:01:04.118Z,9.678059
2022-09-20T08:02:04.147Z,9.678054
2022-09-20T08:03:04.075Z,9.678070
2022-09-20T08:04:04.051Z,9.678067
2022-09-20T08:05:04.062Z,9.678118
2022-09-20T08:06:04.066Z,9.678123
2022-09-20T08:07:04.030Z,9.678110
2022-09-20T08:08:04.043Z,9.678054
2022-09-20T08:09:06.857Z,9.678129
2022-09-20T08:10:05.006Z,9.678109
2022-09-20T08:11:03.999Z,9.678084
2022-09-20T08:14:06.629Z,9.678100
2022-09-20T08:15:06.416Z,9.678134
2022-09-20T08:16:03.961Z,9.678160
2022-09-20T08:17:03.947Z,9.678145
2022-09-20T08:18:03.939Z,9.678115
2022-09-20T08:19:03.931Z,9.678114
2022-09-20T08:20:03.919Z,9.678102
2022-09-20T08:21:03.929Z,9.678066
2022-09-20T08:22:03.901Z,9.678091
2022-09-20T08:23:22.625Z,9.678104
2022-09-20T08:24:04.907Z,9.678122
2022-09-20T08:25:03.882Z,9.678135
2022-09-20T08:26:03.874Z,9.678116
2022-09-20T08:27:03.888Z,9.678113
2022-09-20T08:28:03.861Z,9.678123
2022-09-20T08:29:03.838Z,9.678111
2022-09-20T08:30:03.835Z,9.678117
2022-09-20T08:31:03.825Z,9.678098
2022-09-20T08:32:03.871Z,9.678053
2022-09-20T08:33:03.835Z,9.678080
2022-09-20T08:34:03.821Z,9.678109
2022-09-20T08:35:05.894Z,9.678146
2022-09-20T08:36:03.783Z,9.678149
2022-09-20T08:37:03.846Z,9.678074
2022-09-20T08:40:04.847Z,9.678187
2022-09-20T08:41:03.752Z,9.678203
2022-09-20T08:42:03.746Z,9.678165
2022-09-20T08:43:05.577Z,9.678139
2022-09-20T08:44:03.798Z,9.678153
2022-09-20T08:45:03.728Z,9.678106
2022-09-20T08:46:06.869Z,9.678175
2022-09-20T08:47:03.701Z,9.678164
2022-09-20T08:48:03.749Z,9.678183
2022-09-20T08:49:03.684Z,9.678171
2022-09-20T08:50:11.595Z,9.678095
2022-09-20T08:51:05.729Z,9.678106
2022-09-20T08:52:04.353Z,9.678108
2022-09-20T08:53:03.878Z,9.678138
2022-09-20T08:54:03.700Z,9.678185
2022-09-20T08:55:07.551Z,9.678144
2022-09-20T08:56:03.637Z,9.678152
2022-09-20T08:57:03.605Z,9.678213
2022-09-20T08:58:08.207Z,9.678192
2022-09-20T08:59:04.623Z,9.678171
2022-09-20T09:00:03.663Z,9.678116
2022-09-20T09:01:03.611Z,9.678098
2022-09-20T09:02:03.593Z,9.678080
2022-09-20T09:03:03.557Z,9.678130
2022-09-20T09:04:03.882Z,9.678138
2022-09-20T09:05:03.575Z,9.678165
2022-09-20T09:06:05.618Z,9.678150
2022-09-20T09:07:04.518Z,9.678122
2022-09-20T09:08:04.655Z,9.678067
2022-09-20T09:09:03.512Z,9.678038
2022-09-20T09:10:04.928Z,9.678158
2022-09-20T09:11:03.582Z,9.678066
2022-09-20T09:12:03.578Z,9.678143
2022-09-20T09:13:03.496Z,9.678188
2022-09-20T09:14:03.459Z,9.678108
2022-09-20T09:15:03.504Z,9.678080
2022-09-20T09:16:03.467Z,9.678151
2022-09-20T09:17:03.575Z,9.678114
2022-09-20T09:18:03.561Z,9.678165
2022-09-20T09:19:03.468Z,9.678185
2022-09-20T09:20:04.250Z,9.678159
2022-09-20T09:21:03.577Z,9.678181
2022-09-20T09:22:03.417Z,9.678190
2022-09-20T09:23:03.396Z,9.678144
2022-09-20T09:24:03.540Z,9.678136
2022-09-20T09:25:03.519Z,9.678120
2022-09-20T09:26:03.361Z,9.678124
2022-09-20T09:27:03.369Z,9.678079
2022-09-20T09:28:04.271Z,9.678111
2022-09-20T09:29:03.361Z,9.678105
2022-09-20T09:30:03.320Z,9.678110
2022-09-20T09:31:03.319Z,9.678094
2022-09-20T09:32:03.351Z,9.678110
2022-09-20T09:33:03.305Z,9.678129
2022-09-20T09:34:03.323Z,9.678144
2022-09-20T09:35:03.290Z,9.678158
2022-09-20T09:36:03.285Z,9.678144
2022-09-20T09:37:03.276Z,9.678149
2022-09-20T09:38:03.270Z,9.678143
2022-09-20T09:39:03.321Z,9.678127
2022-09-20T09:40:03.336Z,9.678142
2022-09-20T09:41:03.287Z,9.678144
2022-09-20T09:42:03.238Z,9.678149
2022-09-20T09:43:03.237Z,9.678144
2022-09-20T09:44:03.207Z,9.678159
2022-09-20T09:45:03.268Z,9.678117
2022-09-20T09:46:03.305Z,9.678116
2022-09-20T09:47:03.186Z,9.678097
2022-09-20T09:48:03.169Z,9.678105
2022-09-20T09:49:03.173Z,9.678114
2022-09-20T09:50:07.540Z,9.678109
2022-09-20T09:51:04.184Z,9.678115
2022-09-20T09:52:03.139Z,9.678078
2022-09-20T09:53:03.141Z,9.678122
2022-09-20T09:54:03.128Z,9.678166
2022-09-20T09:55:05.322Z,9.678165
2022-09-20T09:56:03.109Z,9.678169
2022-09-20T09:57:03.126Z,9.678110
2022-09-20T09:58:03.100Z,9.678213
2022-09-20T09:59:03.078Z,9.678184
2022-09-20T10:00:06.345Z,9.678124
2022-09-20T10:01:04.189Z,9.678142
2022-09-20T10:02:03.078Z,9.678186
2022-09-20T10:03:03.050Z,9.678145
2022-09-20T10:04:03.037Z,9.678131
2022-09-20T10:05:03.039Z,9.678164
2022-09-20T10:06:03.029Z,9.678126
2022-09-20T10:07:03.048Z,9.678157
2022-09-20T10:08:03.038Z,9.678209
2022-09-20T10:09:03.007Z,9.678179
2022-09-20T10:10:03.005Z,9.678171
2022-09-20T10:11:03.025Z,9.678156
2022-09-20T10:12:03.000Z,9.678085
2022-09-20T10:13:02.980Z,9.678132
2022-09-20T10:14:02.972Z,9.678166
2022-09-20T10:15:02.964Z,9.678139
2022-09-20T10:16:02.952Z,9.678137
2022-09-20T10:17:02.970Z,9.678143
2022-09-20T10:18:02.936Z,9.678156
2022-09-20T10:19:02.938Z,9.678161
2022-09-20T10:20:02.917Z,9.678154
2022-09-20T10:21:02.908Z,9.678177
2022-09-20T10:22:02.926Z,9.678176
2022-09-20T10:23:34.406Z,9.678191
2022-09-20T10:24:04.770Z,9.678184
2022-09-20T10:25:02.876Z,9.678159
2022-09-20T10:26:02.859Z,9.678163
2022-09-20T10:27:02.879Z,9.678162
2022-09-20T10:28:02.872Z,9.678142
2022-09-20T10:29:02.837Z,9.678150
2022-09-20T10:30:02.888Z,9.678148
2022-09-20T10:31:02.909Z,9.678166
2022-09-20T10:32:02.820Z,9.678159
2022-09-20T10:33:02.809Z,9.678168
2022-09-20T10:34:02.815Z,9.678171
2022-09-20T10:35:02.789Z,9.678150
2022-09-20T10:36:02.779Z,9.678176
2022-09-20T10:37:02.769Z,9.678204
2022-09-20T10:38:02.800Z,9.678171
2022-09-20T10:39:02.778Z,9.678144
2022-09-20T10:40:02.807Z,9.678164
2022-09-20T10:41:02.725Z,9.678186
2022-09-20T10:42:02.850Z,9.678161
2022-09-20T10:43:02.712Z,9.678175
2022-09-20T10:44:05.428Z,9.678147
2022-09-20T10:45:02.737Z,9.678170
2022-09-20T10:47:03.764Z,9.678200
2022-09-20T10:48:02.675Z,9.678146
2022-09-20T10:49:02.674Z,9.678173
2022-09-20T10:50:02.694Z,9.678174
2022-09-20T10:51:02.652Z,9.678185
2022-09-20T10:52:02.641Z,9.678157
2022-09-20T10:53:02.628Z,9.678103
2022-09-20T10:54:02.620Z,9.678173
2022-09-20T10:55:02.639Z,9.678181
2022-09-20T10:56:02.628Z,9.678173
2022-09-20T10:57:02.609Z,9.678162
2022-09-20T10:58:02.595Z,9.678178
2022-09-20T10:59:02.575Z,9.678173
2022-09-20T11:00:02.560Z,9.678161
2022-09-20T11:01:02.636Z,9.678143
2022-09-20T11:02:02.643Z,9.678169
2022-09-20T11:03:02.544Z,9.678153
2022-09-20T11:04:02.541Z,9.678140
2022-09-20T11:05:02.528Z,9.678143
2022-09-20T11:06:02.518Z,9.678102
2022-09-20T11:07:02.585Z,9.678104
2022-09-20T11:08:02.514Z,9.678073
2022-09-20T11:09:02.489Z,9.678114
2022-09-20T11:10:02.483Z,9.678148
2022-09-20T11:11:02.731Z,9.678142
2022-09-20T11:12:02.478Z,9.678118
2022-09-20T11:13:02.471Z,9.678167
2022-09-20T11:14:02.454Z,9.678131
2022-09-20T11:15:02.449Z,9.678172
2022-09-20T11:16:02.451Z,9.678183
2022-09-20T11:17:02.646Z,9.678144
2022-09-20T11:18:02.437Z,9.678170
2022-09-20T11:19:02.436Z,9.678166
2022-09-20T11:20:07.262Z,9.678147
2022-09-20T11:21:03.403Z,9.678120
2022-09-20T11:22:02.386Z,9.678142
2022-09-20T11:23:02.393Z,9.678137
2022-09-20T11:24:02.388Z,9.678166
2022-09-20T11:25:02.388Z,9.678177
2022-09-20T11:26:02.395Z,9.678179
2022-09-20T11:27:02.371Z,9.678180
2022-09-20T11:28:02.343Z,9.678157
2022-09-20T11:29:02.338Z,9.678185
2022-09-20T11:30:02.369Z,9.678154
2022-09-20T11:31:02.335Z,9.678140
2022-09-20T11:32:02.441Z,9.678134
2022-09-20T11:33:02.327Z,9.678164
2022-09-20T11:34:02.285Z,9.678148
2022-09-20T11:35:02.291Z,9.678144
2022-09-20T11:36:02.285Z,9.678127
2022-09-20T11:37:02.265Z,9.678132
2022-09-20T11:38:02.245Z,9.678123
2022-09-20T11:39:02.243Z,9.678113
2022-09-20T11:40:02.368Z,9.678142
2022-09-20T11:41:02.241Z,9.678110
2022-09-20T11:42:02.258Z,9.678138
2022-09-20T11:43:02.532Z,9.678150
2022-09-20T11:44:02.219Z,9.678160
2022-09-20T11:45:02.224Z,9.678181
2022-09-20T11:46:02.263Z,9.678185
2022-09-20T11:47:02.210Z,9.678195
2022-09-20T11:48:02.178Z,9.678169
2022-09-20T11:49:02.164Z,9.678190
2022-09-20T11:50:02.169Z,9.678195
2022-09-20T11:51:02.153Z,9.678200
2022-09-20T11:52:02.192Z,9.678194